Time,TemperatureF,DewpointF,PressureIn,WindDirection,WindDirectionDegrees,WindSpeedMPH,WindSpeedGustMPH,Humidity,HourlyPrecipIn,Conditions,Clouds,dailyrainin,SoftwareType,DateUTC
2013-02-01 00:09:00,-999.0,-99.9,0.00,North,-999,-999.0,-999.0,-999,-99.99,,,0.00,weatherlink.com 1.10,2013-02-01 06:09:00,
2013-02-01 00:24:00,-999.0,-99.9,0.00,North,-999,-999.0,-999.0,-999,-99.99,,,0.00,weatherlink.com 1.10,2013-02-01 06:24:00,
2013-02-01 00:39:00,-999.0,-99.9,0.00,North,-999,-999.0,-999.0,-999,-99.99,,,0.00,weatherlink.com 1.10,2013-02-01 06:39:00,
2013-02-01 00:54:00,-999.0,-99.9,0.00,North,-999,-999.0,-999.0,-999,-99.99,,,0.00,weatherlink.com 1.10,2013-02-01 06:54:00,
2013-02-01 01:10:00,-999.0,-99.9,0.00,North,-999,-999.0,-999.0,-999,-99.99,,,0.00,weatherlink.com 1.10,2013-02-01 07:10:00,
2013-02-01 01:24:00,-999.0,-99.9,0.00,North,-999,-999.0,-999.0,-999,-99.99,,,0.00,weatherlink.com 1.10,2013-02-01 07:24:00,
2013-02-01 01:39:00,-999.0,-99.9,0.00,North,-999,-999.0,-999.0,-999,-99.99,,,0.00,weatherlink.com 1.10,2013-02-01 07:39:00,
2013-02-01 01:54:00,-999.0,-99.9,0.00,North,-999,-999.0,-999.0,-999,-99.99,,,0.00,weatherlink.com 1.10,2013-02-01 07:54:00,
2013-02-01 02:10:00,-999.0,-99.9,0.00,North,-999,-999.0,-999.0,-999,-99.99,,,0.00,weatherlink.com 1.10,2013-02-01 08:10:00,
2013-02-01 02:25:00,-999.0,-99.9,0.00,North,-999,-999.0,-999.0,-999,-99.99,,,0.00,weatherlink.com 1.10,2013-02-01 08:25:00,
2013-02-01 02:40:00,-999.0,-99.9,0.00,North,-999,-999.0,-999.0,-999,-99.99,,,0.00,weatherlink.com 1.10,2013-02-01 08:40:00,
2013-02-01 02:55:00,-999.0,-99.9,0.00,North,-999,-999.0,-999.0,-999,-99.99,,,0.00,weatherlink.com 1.10,2013-02-01 08:55:00,
2013-02-01 03:10:00,-999.0,-99.9,21.05,North,-999,-999.0,-999.0,-999,-99.99,,,0.00,weatherlink.com 1.10,2013-02-01 09:10:00,
2013-02-01 03:25:00,-999.0,-99.9,21.05,North,-999,-999.0,-999.0,-999,-99.99,,,0.00,weatherlink.com 1.10,2013-02-01 09:25:00,
2013-02-01 03:40:00,-999.0,-99.9,21.05,North,-999,-999.0,-999.0,-999,-99.99,,,0.00,weatherlink.com 1.10,2013-02-01 09:40:00,
2013-02-01 03:59:00,-999.0,-99.9,21.05,North,-999,-999.0,-999.0,-999,-99.99,,,0.00,weatherlink.com 1.10,2013-02-01 09:59:00,
2013-02-01 04:10:00,-999.0,-99.9,0.00,North,-999,-999.0,-999.0,-999,-99.99,,,0.00,weatherlink.com 1.10,2013-02-01 10:10:00,
2013-02-01 04:25:00,-999.0,-99.9,0.00,North,-999,-999.0,-999.0,-999,-99.99,,,0.00,weatherlink.com 1.10,2013-02-01 10:25:00,
2013-02-01 04:41:00,-999.0,-99.9,0.00,North,-999,-999.0,-999.0,-999,-99.99,,,0.00,weatherlink.com 1.10,2013-02-01 10:41:00,
2013-02-01 04:55:00,-999.0,-99.9,0.00,North,-999,-999.0,-999.0,-999,-99.99,,,0.00,weatherlink.com 1.10,2013-02-01 10:55:00,
2013-02-01 05:11:00,-999.0,-99.9,0.00,North,-999,-999.0,-999.0,-999,-99.99,,,0.00,weatherlink.com 1.10,2013-02-01 11:11:00,
2013-02-01 05:25:00,-999.0,-99.9,0.00,North,-999,-999.0,-999.0,-999,-99.99,,,0.00,weatherlink.com 1.10,2013-02-01 11:25:00,
2013-02-01 05:41:00,-999.0,-99.9,0.00,North,-999,-999.0,-999.0,-999,-99.99,,,0.00,weatherlink.com 1.10,2013-02-01 11:41:00,
2013-02-01 05:56:00,-999.0,-99.9,0.00,North,-999,-999.0,-999.0,-999,-99.99,,,0.00,weatherlink.com 1.10,2013-02-01 11:56:00,
2013-02-01 06:11:00,-999.0,-99.9,21.92,North,-999,-999.0,-999.0,-999,-99.99,,,0.00,weatherlink.com 1.10,2013-02-01 12:11:00,
2013-02-01 06:26:00,-999.0,-99.9,21.92,North,-999,-999.0,-999.0,-999,-99.99,,,0.00,weatherlink.com 1.10,2013-02-01 12:26:00,
2013-02-01 06:41:00,-999.0,-99.9,21.92,North,-999,-999.0,-999.0,-999,-99.99,,,0.00,weatherlink.com 1.10,2013-02-01 12:41:00,
2013-02-01 06:56:00,-999.0,-99.9,0.00,North,-999,-999.0,-999.0,-999,-99.99,,,0.00,weatherlink.com 1.10,2013-02-01 12:56:00,
2013-02-01 07:11:00,-999.0,-99.9,0.00,North,-999,-999.0,-999.0,-999,-99.99,,,0.00,weatherlink.com 1.10,2013-02-01 13:11:00,
2013-02-01 07:26:00,-999.0,-99.9,0.00,North,-999,-999.0,-999.0,-999,-99.99,,,0.00,weatherlink.com 1.10,2013-02-01 13:26:00,
2013-02-01 07:41:00,-999.0,-99.9,0.00,North,-999,-999.0,-999.0,-999,-99.99,,,0.00,weatherlink.com 1.10,2013-02-01 13:41:00,
2013-02-01 07:57:00,-999.0,-99.9,0.00,North,-999,-999.0,-999.0,-999,-99.99,,,0.00,weatherlink.com 1.10,2013-02-01 13:57:00,
2013-02-01 08:12:00,-999.0,-99.9,0.00,North,-999,-999.0,-999.0,-999,-99.99,,,0.00,weatherlink.com 1.10,2013-02-01 14:12:00,
2013-02-01 08:26:00,-999.0,-99.9,0.00,North,-999,-999.0,-999.0,-999,-99.99,,,0.00,weatherlink.com 1.10,2013-02-01 14:26:00,
2013-02-01 08:42:00,-999.0,-99.9,0.00,North,-999,-999.0,-999.0,-999,-99.99,,,0.00,weatherlink.com 1.10,2013-02-01 14:42:00,
2013-02-01 08:57:00,-999.0,-99.9,0.00,North,-999,-999.0,-999.0,-999,-99.99,,,0.00,weatherlink.com 1.10,2013-02-01 14:57:00,
2013-02-01 09:12:00,-999.0,-99.9,0.00,North,-999,-999.0,-999.0,-999,-99.99,,,0.00,weatherlink.com 1.10,2013-02-01 15:12:00,
2013-02-01 09:27:00,-999.0,-99.9,0.00,North,-999,-999.0,-999.0,-999,-99.99,,,0.00,weatherlink.com 1.10,2013-02-01 15:27:00,
2013-02-01 09:42:00,-999.0,-99.9,0.00,North,-999,-999.0,-999.0,-999,-99.99,,,0.00,weatherlink.com 1.10,2013-02-01 15:42:00,
2013-02-01 09:57:00,-999.0,-99.9,0.00,North,-999,-999.0,-999.0,-999,-99.99,,,0.00,weatherlink.com 1.10,2013-02-01 15:57:00,
2013-02-01 10:12:00,-999.0,-99.9,0.00,North,-999,-999.0,-999.0,-999,-99.99,,,0.00,weatherlink.com 1.10,2013-02-01 16:12:00,
2013-02-01 10:27:00,-999.0,-99.9,0.00,North,-999,-999.0,-999.0,-999,-99.99,,,0.00,weatherlink.com 1.10,2013-02-01 16:27:00,
2013-02-01 10:42:00,-999.0,-99.9,0.00,North,-999,-999.0,-999.0,-999,-99.99,,,0.00,weatherlink.com 1.10,2013-02-01 16:42:00,
2013-02-01 10:57:00,-999.0,-99.9,0.00,North,-999,-999.0,-999.0,-999,-99.99,,,0.00,weatherlink.com 1.10,2013-02-01 16:57:00,
2013-02-01 11:12:00,-999.0,-99.9,0.00,North,-999,-999.0,-999.0,-999,-99.99,,,0.00,weatherlink.com 1.10,2013-02-01 17:12:00,
2013-02-01 11:27:00,-999.0,-99.9,0.00,North,-999,-999.0,-999.0,-999,-99.99,,,0.00,weatherlink.com 1.10,2013-02-01 17:27:00,
2013-02-01 11:42:00,-999.0,-99.9,0.00,North,-999,-999.0,-999.0,-999,-99.99,,,0.00,weatherlink.com 1.10,2013-02-01 17:42:00,
2013-02-01 11:58:00,-999.0,-99.9,0.00,North,-999,-999.0,-999.0,-999,-99.99,,,0.00,weatherlink.com 1.10,2013-02-01 17:58:00,
2013-02-01 12:13:00,53.7,42.0,0.00,NNW,331,15.0,-999.0,66,-99.99,,,0.00,weatherlink.com 1.10,2013-02-01 18:13:00,
2013-02-01 12:28:00,53.5,43.0,0.00,NNW,333,14.0,-999.0,68,-99.99,,,0.00,weatherlink.com 1.10,2013-02-01 18:28:00,
2013-02-01 12:43:00,53.8,43.0,0.00,NW,319,14.0,-999.0,67,-99.99,,,0.00,weatherlink.com 1.10,2013-02-01 18:43:00,
2013-02-01 12:58:00,54.3,44.0,0.00,NNW,336,11.0,-999.0,68,-99.99,,,0.00,weatherlink.com 1.10,2013-02-01 18:58:00,
2013-02-01 13:13:00,55.0,43.0,24.05,NNW,338,17.0,-999.0,65,-99.99,,,0.00,weatherlink.com 1.10,2013-02-01 19:13:00,
2013-02-01 13:28:00,54.9,43.0,24.18,NNW,339,16.0,-999.0,65,-99.99,,,0.00,weatherlink.com 1.10,2013-02-01 19:28:00,
2013-02-01 13:43:00,55.5,44.0,24.18,NNW,336,16.0,-999.0,66,-99.99,,,0.00,weatherlink.com 1.10,2013-02-01 19:43:00,
2013-02-01 13:58:00,55.8,44.0,24.18,NNW,338,14.0,-999.0,65,-99.99,,,0.00,weatherlink.com 1.10,2013-02-01 19:58:00,
2013-02-01 14:13:00,56.4,43.0,24.18,NNW,334,17.0,-999.0,62,-99.99,,,0.00,weatherlink.com 1.10,2013-02-01 20:13:00,
2013-02-01 14:28:00,57.1,43.0,24.18,NNW,336,14.0,-999.0,60,-99.99,,,0.00,weatherlink.com 1.10,2013-02-01 20:28:00,
2013-02-01 14:43:00,57.2,45.0,24.20,NW,321,14.0,-999.0,63,-99.99,,,0.00,weatherlink.com 1.10,2013-02-01 20:43:00,
2013-02-01 14:58:00,57.5,43.0,24.60,NNW,342,14.0,-999.0,59,-99.99,,,0.00,weatherlink.com 1.10,2013-02-01 20:58:00,
2013-02-01 15:13:00,58.2,43.0,24.45,NNW,342,13.0,-999.0,58,-99.99,,,0.00,weatherlink.com 1.10,2013-02-01 21:13:00,
2013-02-01 15:28:00,58.1,42.0,24.45,NNW,333,12.0,-999.0,56,-99.99,,,0.00,weatherlink.com 1.10,2013-02-01 21:28:00,
2013-02-01 15:43:00,59.3,42.0,24.45,NNW,330,12.0,-999.0,54,-99.99,,,0.00,weatherlink.com 1.10,2013-02-01 21:43:00,
2013-02-01 15:58:00,58.3,42.0,24.45,NNW,336,10.0,-999.0,56,-99.99,,,0.00,weatherlink.com 1.10,2013-02-01 21:58:00,
2013-02-01 16:13:00,59.5,44.0,24.62,NNW,341,13.0,-999.0,56,-99.99,,,0.00,weatherlink.com 1.10,2013-02-01 22:13:00,
2013-02-01 16:28:00,59.9,36.0,24.62,NNE,30,5.0,-999.0,41,-99.99,,,0.00,weatherlink.com 1.10,2013-02-01 22:28:00,
2013-02-01 16:43:00,60.1,37.0,24.62,North,5,9.0,-999.0,42,-99.99,,,0.00,weatherlink.com 1.10,2013-02-01 22:43:00,
2013-02-01 16:58:00,59.4,37.0,24.27,North,351,8.0,-999.0,43,-99.99,,,0.00,weatherlink.com 1.10,2013-02-01 22:58:00,
2013-02-01 17:13:00,58.7,37.0,24.27,NNE,22,1.0,-999.0,44,-99.99,,,0.00,weatherlink.com 1.10,2013-02-01 23:13:00,
2013-02-01 17:28:00,57.6,36.0,24.51,NNE,17,0.0,-999.0,45,-99.99,,,0.00,weatherlink.com 1.10,2013-02-01 23:28:00,
2013-02-01 17:43:00,56.1,36.0,24.51,NNE,22,1.0,-999.0,48,-99.99,,,0.00,weatherlink.com 1.10,2013-02-01 23:43:00,
2013-02-01 17:58:00,54.7,37.0,24.51,NNE,27,0.0,-999.0,51,-99.99,,,0.00,weatherlink.com 1.10,2013-02-01 23:58:00,
2013-02-01 18:13:00,53.6,37.0,24.51,NNE,28,0.0,-999.0,54,-99.99,,,0.00,weatherlink.com 1.10,2013-02-02 00:13:00,
2013-02-01 18:28:00,53.0,37.0,25.46,NE,35,0.0,-999.0,56,-99.99,,,0.00,weatherlink.com 1.10,2013-02-02 00:28:00,
2013-02-01 18:43:00,52.1,37.0,25.46,NE,35,0.0,-999.0,56,-99.99,,,0.00,weatherlink.com 1.10,2013-02-02 00:43:00,
2013-02-01 18:59:00,51.2,36.0,25.46,NE,35,0.0,-999.0,56,-99.99,,,0.00,weatherlink.com 1.10,2013-02-02 00:59:00,
2013-02-01 19:14:00,50.4,36.0,25.46,NE,35,0.0,-999.0,58,-99.99,,,0.00,weatherlink.com 1.10,2013-02-02 01:14:00,
2013-02-01 19:28:00,49.4,35.0,25.46,NE,35,0.0,-999.0,59,-99.99,,,0.00,weatherlink.com 1.10,2013-02-02 01:28:00,
2013-02-01 19:44:00,48.8,37.0,25.46,NE,35,0.0,-999.0,63,-99.99,,,0.00,weatherlink.com 1.10,2013-02-02 01:44:00,
2013-02-01 19:59:00,48.5,36.0,25.46,NE,34,0.0,-999.0,62,-99.99,,,0.00,weatherlink.com 1.10,2013-02-02 01:59:00,
2013-02-01 20:14:00,47.8,36.0,25.46,NE,38,0.0,-999.0,63,-99.99,,,0.00,weatherlink.com 1.10,2013-02-02 02:14:00,
2013-02-01 20:29:00,47.1,35.0,25.46,NE,36,0.0,-999.0,63,-99.99,,,0.00,weatherlink.com 1.10,2013-02-02 02:29:00,
2013-02-01 20:44:00,46.9,34.0,25.46,NE,38,0.0,-999.0,61,-99.99,,,0.00,weatherlink.com 1.10,2013-02-02 02:44:00,
2013-02-01 20:59:00,46.5,33.0,25.46,North,5,0.0,-999.0,60,-99.99,,,0.00,weatherlink.com 1.10,2013-02-02 02:59:00,
2013-02-01 21:14:00,46.0,32.0,25.46,NNE,13,0.0,-999.0,59,-99.99,,,0.00,weatherlink.com 1.10,2013-02-02 03:14:00,
2013-02-01 21:29:00,45.7,31.0,25.46,NNE,28,0.0,-999.0,58,-99.99,,,0.00,weatherlink.com 1.10,2013-02-02 03:29:00,
2013-02-01 21:44:00,45.4,31.0,25.46,NNE,30,0.0,-999.0,57,-99.99,,,0.00,weatherlink.com 1.10,2013-02-02 03:44:00,
2013-02-01 21:59:00,45.0,31.0,25.46,NNE,25,0.0,-999.0,58,-99.99,,,0.00,weatherlink.com 1.10,2013-02-02 03:59:00,
2013-02-01 22:14:00,44.5,30.0,25.46,NNE,26,0.0,-999.0,58,-99.99,,,0.00,weatherlink.com 1.10,2013-02-02 04:14:00,
2013-02-01 22:29:00,44.1,30.0,25.46,East,79,0.0,-999.0,59,-99.99,,,0.00,weatherlink.com 1.10,2013-02-02 04:29:00,
2013-02-01 22:44:00,43.6,30.0,25.46,NE,41,0.0,-999.0,59,-99.99,,,0.00,weatherlink.com 1.10,2013-02-02 04:44:00,
2013-02-01 22:59:00,43.1,30.0,25.46,NE,43,1.0,-999.0,60,-99.99,,,0.00,weatherlink.com 1.10,2013-02-02 04:59:00,
2013-02-01 23:14:00,42.6,29.0,25.46,NNE,30,0.0,-999.0,60,-99.99,,,0.00,weatherlink.com 1.10,2013-02-02 05:14:00,
2013-02-01 23:29:00,42.2,29.0,25.46,NNE,24,0.0,-999.0,60,-99.99,,,0.00,weatherlink.com 1.10,2013-02-02 05:29:00,
2013-02-01 23:44:00,41.8,29.0,25.46,NNE,32,0.0,-999.0,62,-99.99,,,0.00,weatherlink.com 1.10,2013-02-02 05:44:00,
2013-02-01 23:59:00,41.4,29.0,25.46,NNE,19,0.0,-999.0,61,-99.99,,,0.00,weatherlink.com 1.10,2013-02-02 05:59:00,